Flight Track Log - Related Links

Times and Time Zones

All times are in EST time to prevent confusion due to time zone crossing. See the EVA191 flight status page for this flight to view local times or setup timezone preferences in your user account.

Time Position Orientation Groundspeed Altitude Reporting Facility
EST Latitude Longitude Course Direction KTS MPH feet Rate Location/Type
Sun 10:35:30 PM 35.5430 139.8510 129° Southeast 146 168 1,900  Level FlightAware ADS-B
Sun 10:35:49 PM 35.5340 139.8640 130° Southeast 150 173 2,400 1,946 Climbing FlightAware ADS-B
Sun 10:36:07 PM 35.5260 139.8750 132° Southeast 143 165 3,100 1,814 Climbing FlightAware ADS-B
Sun 10:36:32 PM 35.5150 139.8900 132° Southeast 155 178 3,700 1,313 Climbing FlightAware ADS-B
Sun 10:36:39 PM 35.5100 139.8920 162° South 154 177 3,800 545 Climbing FlightAware ADS-B
Sun 10:36:43 PM 35.5070 139.8920 180° South 158 182 3,800 545 Level FlightAware ADS-B
Sun 10:36:50 PM 35.5020 139.8900 198° South 170 196 3,900 923 Climbing FlightAware ADS-B
Sun 10:36:56 PM 35.4980 139.8880 202° Southwest 179 206 4,000 960 Climbing FlightAware ADS-B
Sun 10:37:15 PM 35.4840 139.8760 215° Southwest 209 241 4,300 2,333 Climbing FlightAware ADS-B
Sun 10:37:32 PM 35.4690 139.8650 211° Southwest 212 244 5,400 3,805 Climbing FlightAware ADS-B
Sun 10:37:56 PM 35.4500 139.8500 213° Southwest 202 232 6,900 2,857 Climbing FlightAware ADS-B
Sun 10:38:14 PM 35.4340 139.8390 209° Southwest 225 259 7,400 1,455 Climbing FlightAware ADS-B
Sun 10:38:29 PM 35.4210 139.8290 212° Southwest 247 284 7,700 2,108 Climbing FlightAware ADS-B
Sun 10:38:51 PM 35.3990 139.8120 212° Southwest 260 299 8,700 2,700 Climbing FlightAware ADS-B
Sun 10:39:09 PM 35.3810 139.7980 212° Southwest 269 310 9,500 2,681 Climbing FlightAware ADS-B
Sun 10:39:38 PM 35.3490 139.7740 211° Southwest 284 327 10,800 1,862 Climbing FlightAware ADS-B
Sun 10:40:07 PM 35.3150 139.7470 213° Southwest 323 372 11,300 1,571 Climbing FlightAware ADS-B
Sun 10:40:20 PM 35.3000 139.7290 224° Southwest 326 375 11,900 3,000 Climbing FlightAware ADS-B
Sun 10:40:37 PM 35.2830 139.7060 228° Southwest 328 377 12,800 2,483 Climbing FlightAware ADS-B
Sun 10:40:49 PM 35.2770 139.6930 241° Southwest 326 375 13,100 2,694 Climbing FlightAware ADS-B
Sun 10:41:26 PM 35.2640 139.6170 258° West 338 389 15,000 3,000 Climbing FlightAware ADS-B
Sun 10:41:59 PM 35.2530 139.5580 257° West 340 391 16,600 2,909 Climbing FlightAware ADS-B
Sun 10:44:00 PM 35.1625 139.3534 242° Southwest  Level Estimated
Sun 10:45:00 PM 35.1175 139.2521 242° Southwest  Level Estimated
Sun 10:46:00 PM 35.0724 139.1509 241° Southwest  Level Estimated
Sun 10:47:00 PM 35.0272 139.0499 241° Southwest  Level Estimated
Sun 10:48:00 PM 34.9820 138.9489 241° Southwest  Level Estimated
Sun 10:49:00 PM 34.9366 138.8481 241° Southwest  Level Estimated
Sun 10:50:00 PM 34.8912 138.7473 241° Southwest  Level Estimated
Sun 10:51:00 PM 34.8457 138.6467 241° Southwest  Level Estimated
Sun 10:52:00 PM 34.8001 138.5462 241° Southwest  Level Estimated
Sun 10:53:00 PM 34.7545 138.4458 241° Southwest  Level Estimated
Sun 10:54:00 PM 34.7087 138.3455 241° Southwest  Level Estimated
Sun 10:55:00 PM 34.6629 138.2453 241° Southwest  Level Estimated
Sun 10:56:00 PM 34.6170 138.1453 241° Southwest  Level Estimated
Sun 10:57:00 PM 34.5710 138.0453 241° Southwest  Level Estimated
Sun 10:58:00 PM 34.5249 137.9455 241° Southwest  Level Estimated
Sun 10:59:00 PM 34.4787 137.8458 241° Southwest  Level Estimated
Sun 11:00:00 PM 34.4325 137.7461 241° Southwest  Level Estimated
Sun 11:01:00 PM 34.3862 137.6466 241° Southwest  Level Estimated
Sun 11:02:00 PM 34.3398 137.5472 241° Southwest  Level Estimated
Sun 11:03:00 PM 34.2933 137.4479 240° Southwest  Level Estimated
Sun 11:04:00 PM 34.2467 137.3488 240° Southwest  Level Estimated
Sun 11:05:00 PM 34.2001 137.2497 240° Southwest  Level Estimated
Sun 11:06:00 PM 34.1534 137.1507 240° Southwest  Level Estimated
Sun 11:07:00 PM 34.1066 137.0519 240° Southwest  Level Estimated
Sun 11:08:00 PM 34.0597 136.9531 240° Southwest  Level Estimated
Sun 11:09:00 PM 34.0127 136.8545 240° Southwest  Level Estimated
Sun 11:10:00 PM 33.9657 136.7560 240° Southwest  Level Estimated
Sun 11:11:00 PM 33.9186 136.6576 240° Southwest  Level Estimated
Sun 11:12:00 PM 33.8714 136.5593 240° Southwest  Level Estimated
Sun 11:13:00 PM 33.8241 136.4611 240° Southwest  Level Estimated
Sun 11:14:00 PM 33.7768 136.3630 240° Southwest  Level Estimated
Sun 11:15:00 PM 33.7294 136.2650 240° Southwest  Level Estimated
Sun 11:16:00 PM 33.6819 136.1671 240° Southwest  Level Estimated
Sun 11:17:00 PM 33.6343 136.0694 240° Southwest  Level Estimated
Sun 11:18:00 PM 33.5866 135.9717 240° Southwest  Level Estimated
Sun 11:19:00 PM 33.5389 135.8741 240° Southwest  Level Estimated
Sun 11:20:00 PM 33.4911 135.7767 240° Southwest  Level Estimated
Sun 11:21:00 PM 33.4432 135.6794 239° Southwest  Level Estimated
Sun 11:22:00 PM 33.3952 135.5822 239° Southwest  Level Estimated
Sun 11:23:00 PM 33.3472 135.4850 239° Southwest  Level Estimated
Sun 11:24:00 PM 33.2991 135.3880 239° Southwest  Level Estimated
Sun 11:25:00 PM 33.2509 135.2911 239° Southwest  Level Estimated
Sun 11:26:00 PM 33.2026 135.1943 239° Southwest  Level Estimated
Sun 11:27:00 PM 33.1543 135.0976 239° Southwest  Level Estimated
Sun 11:28:00 PM 33.1059 135.0011 239° Southwest  Level Estimated
Sun 11:29:00 PM 33.0574 134.9046 239° Southwest  Level Estimated
Sun 11:30:00 PM 33.0088 134.8082 239° Southwest  Level Estimated
Sun 11:31:00 PM 32.9602 134.7119 239° Southwest  Level Estimated
Sun 11:32:00 PM 32.9115 134.6158 239° Southwest  Level Estimated
Sun 11:33:00 PM 32.8627 134.5197 239° Southwest  Level Estimated
Sun 11:34:00 PM 32.8138 134.4238 239° Southwest  Level Estimated
Sun 11:35:00 PM 32.7649 134.3279 239° Southwest  Level Estimated
Sun 11:36:00 PM 32.7159 134.2322 239° Southwest  Level Estimated
Sun 11:37:00 PM 32.6668 134.1366 239° Southwest  Level Estimated
Sun 11:38:00 PM 32.6177 134.0410 239° Southwest  Level Estimated
Sun 11:39:00 PM 32.5685 133.9456 239° Southwest  Level Estimated
Sun 11:40:00 PM 32.5192 133.8503 238° Southwest  Level Estimated
Sun 11:41:00 PM 32.4698 133.7551 238° Southwest  Level Estimated
Sun 11:42:00 PM 32.4204 133.6600 238° Southwest  Level Estimated
Sun 11:43:00 PM 32.3709 133.5650 238° Southwest  Level Estimated
Sun 11:44:00 PM 32.3213 133.4701 238° Southwest  Level Estimated
Sun 11:45:00 PM 32.2716 133.3753 238° Southwest  Level Estimated
Sun 11:46:00 PM 32.2219 133.2806 238° Southwest  Level Estimated
Sun 11:47:00 PM 32.1721 133.1860 238° Southwest  Level Estimated
Sun 11:48:00 PM 32.1223 133.0915 238° Southwest  Level Estimated
Sun 11:49:00 PM 32.0723 132.9971 238° Southwest  Level Estimated
Sun 11:50:00 PM 32.0223 132.9029 238° Southwest  Level Estimated
Sun 11:51:00 PM 31.9723 132.8087 238° Southwest  Level Estimated
Sun 11:52:00 PM 31.9221 132.7146 238° Southwest  Level Estimated
Sun 11:53:00 PM 31.8719 132.6207 238° Southwest  Level Estimated
Sun 11:54:00 PM 31.8216 132.5268 238° Southwest  Level Estimated
Sun 11:55:00 PM 31.7713 132.4330 238° Southwest  Level Estimated
Sun 11:56:00 PM 31.7209 132.3394 238° Southwest  Level Estimated
Sun 11:57:00 PM 31.6704 132.2458 238° Southwest  Level Estimated
Sun 11:58:00 PM 31.6198 132.1523 238° Southwest  Level Estimated
Sun 11:59:00 PM 31.5692 132.0590 238° Southwest  Level Estimated
Mon 12:00:00 AM 31.5185 131.9657 237° Southwest  Level Estimated
Mon 12:01:00 AM 31.4678 131.8726 237° Southwest  Level Estimated
Mon 12:02:00 AM 31.4170 131.7795 237° Southwest  Level Estimated
Mon 12:03:00 AM 31.3661 131.6866 237° Southwest  Level Estimated
Mon 12:04:00 AM 31.3151 131.5937 237° Southwest  Level Estimated
Mon 12:05:00 AM 31.2641 131.5010 237° Southwest  Level Estimated
Mon 12:06:00 AM 31.2130 131.4083 237° Southwest  Level Estimated
Mon 12:07:00 AM 31.1618 131.3158 237° Southwest  Level Estimated
Mon 12:08:00 AM 31.1106 131.2233 237° Southwest  Level Estimated
Mon 12:09:00 AM 31.0593 131.1310 237° Southwest  Level Estimated
Mon 12:10:00 AM 31.0080 131.0387 237° Southwest  Level Estimated
Mon 12:11:00 AM 30.9566 130.9466 237° Southwest  Level Estimated
Mon 12:12:00 AM 30.9051 130.8545 237° Southwest  Level Estimated
Mon 12:13:00 AM 30.8535 130.7626 237° Southwest  Level Estimated
Mon 12:14:00 AM 30.8019 130.6707 237° Southwest  Level Estimated
Mon 12:15:00 AM 30.7502 130.5790 237° Southwest  Level Estimated
Mon 12:16:00 AM 30.6985 130.4873 237° Southwest  Level Estimated
Mon 12:17:00 AM 30.6467 130.3957 237° Southwest  Level Estimated
Mon 12:18:00 AM 30.5948 130.3043 237° Southwest  Level Estimated
Mon 12:19:00 AM 30.5429 130.2129 237° Southwest  Level Estimated
Mon 12:20:00 AM 30.4909 130.1216 237° Southwest  Level Estimated
Mon 12:21:00 AM 30.4388 130.0305 236° Southwest  Level Estimated
Mon 12:22:00 AM 30.3867 129.9394 236° Southwest  Level Estimated
Mon 12:23:00 AM 30.3345 129.8484 236° Southwest  Level Estimated
Mon 12:24:00 AM 30.2822 129.7576 236° Southwest  Level Estimated
Mon 12:25:00 AM 30.2299 129.6668 236° Southwest  Level Estimated
Mon 12:26:00 AM 30.1776 129.5761 236° Southwest  Level Estimated
Mon 12:27:00 AM 30.1251 129.4855 236° Southwest  Level Estimated
Mon 12:28:00 AM 30.0726 129.3950 236° Southwest  Level Estimated
Mon 12:29:00 AM 30.0201 129.3046 236° Southwest  Level Estimated
Mon 12:30:00 AM 29.9674 129.2143 236° Southwest  Level Estimated
Mon 12:31:00 AM 29.9147 129.1241 236° Southwest  Level Estimated
Mon 12:32:00 AM 29.8620 129.0340 236° Southwest  Level Estimated
Mon 12:33:00 AM 29.8092 128.9440 236° Southwest  Level Estimated
Mon 12:34:00 AM 29.7563 128.8541 236° Southwest  Level Estimated
Mon 12:35:00 AM 29.7034 128.7643 236° Southwest  Level Estimated
Mon 12:36:00 AM 29.6504 128.6745 236° Southwest  Level Estimated
Mon 12:37:00 AM 29.5973 128.5849 236° Southwest  Level Estimated
Mon 12:38:00 AM 29.5442 128.4954 236° Southwest  Level Estimated
Mon 12:39:00 AM 29.4911 128.4059 236° Southwest  Level Estimated
Mon 12:40:00 AM 29.4378 128.3166 236° Southwest  Level Estimated
Mon 12:41:00 AM 29.3845 128.2273 236° Southwest  Level Estimated
Mon 12:42:00 AM 29.3312 128.1381 236° Southwest  Level Estimated
Mon 12:43:00 AM 29.2778 128.0491 236° Southwest  Level Estimated
Mon 12:44:00 AM 29.2243 127.9601 235° Southwest  Level Estimated
Mon 12:45:00 AM 29.1708 127.8712 235° Southwest  Level Estimated
Mon 12:46:00 AM 29.1172 127.7824 235° Southwest  Level Estimated
Mon 12:47:00 AM 29.0636 127.6937 235° Southwest  Level Estimated
Mon 12:48:00 AM 29.0098 127.6051 235° Southwest  Level Estimated
Mon 12:49:00 AM 28.9561 127.5166 235° Southwest  Level Estimated
Mon 12:50:00 AM 28.9023 127.4282 235° Southwest  Level Estimated
Mon 12:51:00 AM 28.8484 127.3398 235° Southwest  Level Estimated
Mon 12:52:00 AM 28.7945 127.2516 235° Southwest  Level Estimated
Mon 12:53:00 AM 28.7405 127.1634 235° Southwest  Level Estimated
Mon 12:54:00 AM 28.6864 127.0754 235° Southwest  Level Estimated
Mon 12:55:00 AM 28.6323 126.9874 235° Southwest  Level Estimated
Mon 12:56:00 AM 28.5781 126.8995 235° Southwest  Level Estimated
Mon 12:57:00 AM 28.5239 126.8117 235° Southwest  Level Estimated
Mon 12:58:00 AM 28.4697 126.7240 235° Southwest  Level Estimated
Mon 12:59:00 AM 28.4153 126.6364 235° Southwest  Level Estimated
Mon 01:00:00 AM 28.3609 126.5489 235° Southwest  Level Estimated
Mon 01:01:00 AM 28.3065 126.4615 235° Southwest  Level Estimated
Mon 01:02:00 AM 28.2520 126.3741 235° Southwest  Level Estimated
Mon 01:03:00 AM 28.1974 126.2869 235° Southwest  Level Estimated
Mon 01:04:00 AM 28.1428 126.1997 235° Southwest  Level Estimated
Mon 01:05:00 AM 28.0882 126.1127 235° Southwest  Level Estimated
Mon 01:06:00 AM 28.0334 126.0257 235° Southwest  Level Estimated
Mon 01:07:00 AM 27.9787 125.9388 234° Southwest  Level Estimated
Mon 01:08:00 AM 27.9238 125.8520 234° Southwest  Level Estimated
Mon 01:09:00 AM 27.8690 125.7653 234° Southwest  Level Estimated
Mon 01:10:00 AM 27.8140 125.6786 234° Southwest  Level Estimated
Mon 01:11:00 AM 27.7590 125.5921 234° Southwest  Level Estimated
Mon 01:12:00 AM 27.7040 125.5057 234° Southwest  Level Estimated
Mon 01:13:00 AM 27.6489 125.4193 234° Southwest  Level Estimated
Mon 01:14:00 AM 27.5937 125.3330 234° Southwest  Level Estimated
Mon 01:15:00 AM 27.5385 125.2468 234° Southwest  Level Estimated
Mon 01:16:00 AM 27.4833 125.1607 234° Southwest  Level Estimated
Mon 01:17:00 AM 27.4279 125.0747 234° Southwest  Level Estimated
Mon 01:18:00 AM 27.3726 124.9888 234° Southwest  Level Estimated
Mon 01:19:00 AM 27.3172 124.9029 234° Southwest  Level Estimated
Mon 01:20:00 AM 27.2617 124.8171 234° Southwest  Level Estimated
Mon 01:21:00 AM 27.2062 124.7315 234° Southwest  Level Estimated
Mon 01:22:00 AM 27.1506 124.6459 234° Southwest  Level Estimated
Mon 01:23:00 AM 27.0950 124.5604 234° Southwest  Level Estimated
Mon 01:24:00 AM 27.0393 124.4750 234° Southwest  Level Estimated
Mon 01:25:00 AM 26.9836 124.3896 234° Southwest  Level Estimated
Mon 01:26:00 AM 26.9278 124.3044 234° Southwest  Level Estimated
Mon 01:27:00 AM 26.8720 124.2192 234° Southwest  Level Estimated
Mon 01:28:00 AM 26.8161 124.1341 234° Southwest  Level Estimated
Mon 01:29:00 AM 26.7602 124.0491 234° Southwest  Level Estimated
Mon 01:30:00 AM 26.7042 123.9642 234° Southwest  Level Estimated
Mon 01:31:00 AM 26.6481 123.8794 234° Southwest  Level Estimated
Mon 01:32:00 AM 26.5921 123.7946 234° Southwest  Level Estimated
Mon 01:33:00 AM 26.5359 123.7100 233° Southwest  Level Estimated
Mon 01:34:00 AM 26.4797 123.6254 233° Southwest  Level Estimated
Mon 01:35:00 AM 26.4235 123.5409 233° Southwest  Level Estimated
Mon 01:36:00 AM 26.3672 123.4565 233° Southwest  Level Estimated
Mon 01:37:00 AM 26.3109 123.3722 233° Southwest  Level Estimated
Mon 01:38:00 AM 26.2545 123.2879 233° Southwest  Level Estimated
Mon 01:39:00 AM 26.1981 123.2037 233° Southwest  Level Estimated
Mon 01:40:00 AM 26.1416 123.1197 233° Southwest  Level Estimated
Mon 01:41:00 AM 26.0851 123.0356 233° Southwest  Level Estimated
Mon 01:42:00 AM 26.0285 122.9517 233° Southwest  Level Estimated
Mon 01:43:00 AM 25.9719 122.8679 233° Southwest  Level Estimated
Mon 01:44:00 AM 25.9152 122.7841 233° Southwest  Level Estimated
Mon 01:45:00 AM 25.8585 122.7004 233° Southwest  Level Estimated
Mon 01:46:00 AM 25.8017 122.6168 233° Southwest  Level Estimated
Mon 01:47:00 AM 25.7449 122.5333 233° Southwest  Level Estimated
Mon 01:48:00 AM 25.6880 122.4499 233° Southwest  Level Estimated
Mon 01:49:00 AM 25.6311 122.3665 233° Southwest  Level Estimated
Mon 01:50:00 AM 25.5741 122.2832 233° Southwest  Level Estimated
Mon 01:51:00 AM 25.5171 122.2000 233° Southwest  Level Estimated
Mon 01:52:00 AM 25.4601 122.1169 233° Southwest  Level Estimated
Mon 01:53:00 AM 25.4030 122.0338 233° Southwest  Level Estimated
Mon 01:54:00 AM 25.3458 121.9509 233° Southwest  Level Estimated
Mon 01:55:00 AM 25.2886 121.8680 233° Southwest  Level Estimated
Mon 01:56:00 AM 25.2314 121.7852 233° Southwest  Level Estimated
Mon 01:57:00 AM 25.1741 121.7024 233° Southwest  Level Estimated
Mon 01:58:00 AM 25.1168 121.6198 233° Southwest  Level Estimated
Mon 01:59:00 AM 25.0694 121.5517 233° Southwest  Level Estimated
Mon 02:00:00 AM 25.0694 121.5517 326° Northwest  Level Estimated
Mon 02:01:00 AM 25.0694 121.5517 326° Northwest  Level Estimated
Mon 02:02:00 AM 25.0694 121.5517 326° Northwest  Level Estimated
Mon 02:03:00 AM 25.0694 121.5517 326° Northwest  Level Estimated
Mon 02:04:00 AM 25.0694 121.5517 326° Northwest  Level Estimated
Mon 02:05:00 AM 25.0694 121.5517 326° Northwest  Level Estimated
Mon 02:06:00 AM 25.0694 121.5517 326° Northwest  Level Estimated
Mon 02:07:00 AM 25.0694 121.5517 326° Northwest  Level Estimated
Mon 02:08:00 AM 25.0694 121.5517 326° Northwest  Level Estimated
Mon 02:09:00 AM 25.0694 121.5517 326° Northwest  Level Estimated
Mon 02:10:00 AM 25.0694 121.5517 326° Northwest  Level Estimated

Login

Don't have an account? Register now (free) for customized features, flight alerts, and more!